| time (UTC) | temp C | wind direction | speed KPH | gust KPH | rain 1hr cm | rain 24hr cm | rain mn cm | humidity % | barometer mb |
| 20260504234510 | 23 | 153 | 0.0 | 0.0 | 0.00 | 0.00 | 0.00 | 44 | 1013.0 |
| 20260504233006 | 23 | 153 | 0.0 | 3.2 | 0.00 | 0.00 | 0.00 | 42 | 1013.1 |
| 20260504231505 | 23 | 296 | 0.0 | 11.3 | 0.00 | 0.00 | 0.00 | 40 | 1013.1 |
| 20260504230005 | 23 | 236 | 0.0 | 8.0 | 0.00 | 0.00 | 0.00 | 42 | 1013.2 |
| 20260504224503 | 24 | 74 | 0.0 | 3.2 | 0.00 | 0.00 | 0.00 | 45 | 1013.3 |
| 20260504223002 | 24 | 171 | 1.6 | 12.9 | 0.00 | 0.00 | 0.00 | 43 | 1013.4 |
| 20260504221501 | 25 | 246 | 1.6 | 11.3 | 0.00 | 0.00 | 0.00 | 40 | 1013.4 |
| 20260504220106 | 25 | 165 | 0.0 | 8.0 | 0.00 | 0.00 | 0.00 | 41 | 1013.5 |
| 20260504214600 | 25 | 62 | 1.6 | 9.7 | 0.00 | 0.00 | 0.00 | 40 | 1013.6 |
| 20260504213110 | 25 | 276 | 1.6 | 11.3 | 0.00 | 0.00 | 0.00 | 40 | 1013.6 |
| 20260504211556 | 25 | 249 | 1.6 | 8.0 | 0.00 | 0.00 | 0.00 | 40 | 1013.6 |
| 20260504210054 | 25 | 267 | 1.6 | 4.8 | 0.00 | 0.00 | 0.00 | 39 | 1013.6 |
| 20260504204601 | 25 | 148 | 3.2 | 9.7 | 0.00 | 0.00 | 0.00 | 39 | 1013.8 |
| 20260504203050 | 25 | 57 | 1.6 | 4.8 | 0.00 | 0.00 | 0.00 | 33 | 1014.0 |
| 20260504201548 | 25 | 257 | 0.0 | 8.0 | 0.00 | 0.00 | 0.00 | 39 | 1014.2 |
| 20260504200045 | 25 | 206 | 4.8 | 11.3 | 0.00 | 0.00 | 0.00 | 39 | 1014.4 |
| 20260504194542 | 25 | 234 | 0.0 | 9.7 | 0.00 | 0.00 | 0.00 | 40 | 1014.6 |
| 20260504193054 | 24 | 124 | 4.8 | 11.3 | 0.00 | 0.00 | 0.00 | 43 | 1014.7 |
| 20260504191538 | 25 | 75 | 0.0 | 16.1 | 0.00 | 0.00 | 0.00 | 42 | 1015.0 |
| 20260504190040 | 24 | 222 | 1.6 | 14.5 | 0.00 | 0.00 | 0.00 | 44 | 1015.2 |
| 20260504184533 | 24 | 184 | 1.6 | 9.7 | 0.00 | 0.00 | 0.00 | 47 | 1015.4 |
| 20260504183034 | 24 | 178 | 4.8 | 12.9 | 0.00 | 0.00 | 0.00 | 47 | 1015.6 |
| 20260504181534 | 23 | 360 | 1.6 | 8.0 | 0.00 | 0.00 | 0.00 | 46 | 1015.7 |
| 20260504180024 | 24 | 140 | 1.6 | 11.3 | 0.00 | 0.00 | 0.00 | 46 | 1015.9 |
| 20260504174523 | 24 | 213 | 1.6 | 8.0 | 0.00 | 0.00 | 0.00 | 48 | 1016.0 |
| 20260504173020 | 23 | 306 | 0.0 | 11.3 | 0.00 | 0.00 | 0.00 | 50 | 1016.3 |
| 20260504171517 | 23 | 148 | 4.8 | 12.9 | 0.00 | 0.00 | 0.00 | 48 | 1016.6 |
| 20260504081553 | 7 | 211 | 0.0 | 0.0 | 0.00 | 0.00 | 0.00 | 91 | 1017.4 |
| 20260504050024 | 9 | 211 | 0.0 | 0.0 | 0.00 | 0.00 | 0.00 | 87 | 1018.4 |
| 20260504044533 | 9 | 211 | 0.0 | 0.0 | 0.00 | 0.00 | 0.00 | 87 | 1018.5 |
| 20260504043034 | 9 | 211 | 0.0 | 0.0 | 0.00 | 0.00 | 0.00 | 85 | 1018.6 |
| 20260504041523 | 9 | 211 | 0.0 | 0.0 | 0.00 | 0.00 | 0.00 | 83 | 1018.6 |
| 20260504040024 | 10 | 211 | 0.0 | 0.0 | 0.00 | 0.00 | 0.00 | 83 | 1018.8 |
| 20260504034522 | 10 | 211 | 0.0 | 0.0 | 0.00 | 0.00 | 0.00 | 82 | 1018.8 |
| 20260504033021 | 10 | 211 | 0.0 | 0.0 | 0.00 | 0.00 | 0.00 | 80 | 1018.8 |
| 20260504031522 | 11 | 211 | 0.0 | 0.0 | 0.00 | 0.00 | 0.00 | 78 | 1018.8 |
| 20260504030021 | 11 | 211 | 0.0 | 0.0 | 0.00 | 0.00 | 0.00 | 77 | 1018.7 |
| 20260504024518 | 11 | 211 | 0.0 | 0.0 | 0.00 | 0.00 | 0.00 | 76 | 1018.5 |
| 20260504023017 | 11 | 211 | 0.0 | 0.0 | 0.00 | 0.00 | 0.00 | 76 | 1018.4 |
| 20260504021518 | 11 | 211 | 0.0 | 0.0 | 0.00 | 0.00 | 0.00 | 74 | 1018.3 |
| 20260504020017 | 12 | 211 | 0.0 | 0.0 | 0.00 | 0.00 | 0.00 | 72 | 1018.2 |
| 20260504014515 | 12 | 211 | 0.0 | 0.0 | 0.00 | 0.00 | 0.00 | 70 | 1018.1 |
| 20260504013019 | 12 | 211 | 0.0 | 0.0 | 0.00 | 0.00 | 0.00 | 69 | 1017.9 |
| 20260504011515 | 13 | 211 | 0.0 | 0.0 | 0.00 | 0.00 | 0.00 | 66 | 1017.9 |
| 20260504010014 | 14 | 211 | 0.0 | 0.0 | 0.00 | 0.00 | 0.00 | 65 | 1017.8 |
| 20260504004518 | 15 | 212 | 0.0 | 0.0 | 0.00 | 0.00 | 0.00 | 62 | 1017.7 |
| 20260504003013 | 16 | 211 | 0.0 | 0.0 | 0.00 | 0.00 | 0.00 | 60 | 1017.5 |
| 20260504001512 | 17 | 211 | 0.0 | 0.0 | 0.00 | 0.00 | 0.00 | 57 | 1017.6 |
| 20260504000009 | 18 | 211 | 0.0 | 0.0 | 0.00 | 0.00 | 0.00 | 52 | 1017.5 |